CheckWX is a tool to help pilots better visualize weather data.  It is not intended as a substitute for an official pre-flight weather briefing.

22:32:26 UTC

EGKK TAF
London Gatwick Airport
London, United Kingdom
TAF EGKK 061701Z 0618/0724 23015KT 9999 SCT025 TEMPO 0618/0619 6000 SHRA BECMG 0621/0624 22005KT BECMG 0721/0724 20015G25KT

Dec-6@
18:00 UTC

Dec-6 @ 18:00 UTC

Dec-6@
21:00 UTC

Dec-6 @ 21:00 UTC

TAF EGKK 061701Z 0618/0724 23015KT 9999 SCT025

Expired

Wind
  • 230° at 15 KTS
Cloud Levels
  • Scattered at 2,500' AGL

Dec-6@
18:00 UTC

Dec-6 @ 18:00 UTC

Dec-6@
19:00 UTC

Dec-6 @ 19:00 UTC

TEMPO 0618/0619 6000 SHRA

Expired

Conditions
Rain

Dec-6@
21:00 UTC

Dec-6 @ 21:00 UTC

Dec-7@
21:00 UTC

Dec-7 @ 21:00 UTC

BECMG 0621/0624 22005KT

Becoming

Becoming Conditions expected by Sat, Dec 7, 2019 @ 00:00 UTC

Wind
  • 220° at 5 KTS
Cloud Levels
  • Scattered at 2,500' AGL

Dec-7@
21:00 UTC

Dec-7 @ 21:00 UTC

Dec-8@
00:00 UTC

Dec-8 @ 00:00 UTC

BECMG 0721/0724 20015G25KT

Becoming

Becoming Conditions expected by Sun, Dec 8, 2019 @ 00:00 UTC

Wind
  • 200° at 15 KTS
  • {Gusting to 25 KTS
Cloud Levels
  • Scattered at 2,500' AGL